Time;durP1;ratioP1;P1;durP2;ratioP2;P2;SDS_P1;SDS_P2;PMS_P1;PMS_P2;Temp;Humidity;BMP_temperature;BMP_pressure;BME280_temperature;BME280_humidity;BME280_pressure;Samples;Min_cycle;Max_cycle;Signal;HPM_P1;HPM_P2
2022/08/25 00:01:24;;;;;;;4.43;4.03;;;22.20;10.10;;;;;;5055436;28;20079;-86
2022/08/25 00:03:51;;;;;;;4.32;3.65;;;22.00;5.90;;;;;;5055366;28;20056;-86
2022/08/25 00:06:17;;;;;;;4.13;3.72;;;22.00;5.20;;;;;;5055407;28;20390;-87
2022/08/25 00:08:43;;;;;;;5.10;3.58;;;22.00;2.50;;;;;;5055395;28;20036;-87
2022/08/25 00:11:15;;;;;;;4.63;3.83;;;22.10;7.50;;;;;;5054997;28;20033;-87
2022/08/25 00:13:44;;;;;;;5.00;3.85;;;22.20;9.80;;;;;;5055015;28;20033;-86
2022/08/25 00:16:11;;;;;;;5.35;3.83;;;22.10;8.60;;;;;;5055213;28;20044;-86
2022/08/25 00:18:38;;;;;;;4.03;3.50;;;22.10;31.70;;;;;;5054980;28;20410;-87
2022/08/25 00:21:05;;;;;;;9.52;3.97;;;22.20;17.70;;;;;;5055112;28;20067;-87
2022/08/25 00:23:31;;;;;;;4.75;3.60;;;22.10;9.40;;;;;;5055018;28;20390;-87
2022/08/25 00:25:56;;;;;;;3.78;3.47;;;22.00;9.50;;;;;;5054587;28;20036;-87
2022/08/25 00:28:22;;;;;;;4.63;3.53;;;22.10;2.30;;;;;;5055016;28;20136;-87
2022/08/25 00:30:49;;;;;;;4.38;3.88;;;22.10;3.00;;;;;;5054760;28;20048;-87
2022/08/25 00:33:15;;;;;;;4.95;3.83;;;21.90;10.40;;;;;;5054847;28;20045;-87
2022/08/25 00:35:41;;;;;;;4.20;3.80;;;21.60;1.00;;;;;;5054788;28;20071;-87
2022/08/25 00:38:08;;;;;;;6.70;4.10;;;21.40;1.00;;;;;;5054727;28;20029;-87
2022/08/25 00:40:35;;;;;;;5.07;4.18;;;21.40;3.00;;;;;;5054386;28;20025;-87
2022/08/25 00:43:01;;;;;;;6.15;3.70;;;21.30;7.50;;;;;;5054658;28;20435;-87
2022/08/25 00:45:27;;;;;;;5.85;3.90;;;21.30;11.70;;;;;;5054654;28;20029;-87
2022/08/25 00:47:52;;;;;;;4.68;4.00;;;21.40;29.00;;;;;;5054860;28;20055;-87
2022/08/25 00:50:18;;;;;;;5.03;4.10;;;21.40;17.50;;;;;;5054604;28;20422;-87
2022/08/25 00:52:48;;;;;;;5.93;3.90;;;21.40;6.80;;;;;;5054484;28;20064;-87
2022/08/25 00:55:28;;;;;;;6.38;3.95;;;21.40;7.40;;;;;;5054220;28;20021;-87
2022/08/25 00:58:00;;;;;;;5.25;4.30;;;21.40;11.30;;;;;;5054520;28;20055;-87
2022/08/25 01:00:35;;;;;;;5.05;4.40;;;21.20;12.80;;;;;;5054326;28;20052;-87
2022/08/25 01:03:01;;;;;;;4.90;4.40;;;21.00;11.40;;;;;;5053760;28;20075;-87
2022/08/25 01:05:27;;;;;;;5.22;4.50;;;21.00;5.80;;;;;;5054505;28;20029;-87
2022/08/25 01:07:54;;;;;;;5.03;4.15;;;20.90;8.80;;;;;;5054262;28;20483;-87
2022/08/25 01:10:21;;;;;;;8.57;4.32;;;20.90;11.60;;;;;;5053874;28;20045;-87
2022/08/25 01:12:48;;;;;;;6.78;4.20;;;21.10;17.40;;;;;;5053951;28;20051;-87
2022/08/25 01:15:14;;;;;;;4.60;4.18;;;21.10;11.50;;;;;;5054164;28;20067;-87
2022/08/25 01:17:47;;;;;;;4.50;4.10;;;21.20;10.30;;;;;;5054129;28;20450;-87
2022/08/25 01:20:15;;;;;;;5.93;4.07;;;21.10;6.90;;;;;;5054048;28;20033;-87
2022/08/25 01:22:41;;;;;;;4.75;4.28;;;21.10;10.00;;;;;;5054128;28;20021;-87
2022/08/25 01:25:38;;;;;;;6.00;4.53;;;20.90;6.30;;;;;;5053459;28;20115;-87
2022/08/25 01:28:04;;;;;;;6.28;4.45;;;20.90;12.70;;;;;;5053753;28;20052;-87
2022/08/25 01:30:30;;;;;;;4.60;4.20;;;20.90;12.10;;;;;;5053579;28;20029;-87
2022/08/25 01:32:55;;;;;;;5.03;4.35;;;20.80;10.00;;;;;;5053746;28;20032;-87
2022/08/25 01:35:21;;;;;;;8.05;4.38;;;21.00;11.10;;;;;;5053707;28;20143;-87
2022/08/25 01:37:47;;;;;;;5.18;4.20;;;21.00;9.90;;;;;;5053276;28;20379;-87
2022/08/25 01:40:12;;;;;;;5.18;4.65;;;20.90;8.10;;;;;;5053771;28;20021;-86
2022/08/25 01:43:05;;;;;;;5.43;4.70;;;20.80;10.80;;;;;;5053594;28;20374;-87
2022/08/25 01:45:31;;;;;;;4.90;4.32;;;20.70;16.80;;;;;;5053512;28;20493;-87
2022/08/25 01:47:56;;;;;;;4.75;4.25;;;20.60;10.20;;;;;;5053516;28;20103;-87
2022/08/25 01:50:22;;;;;;;5.68;5.07;;;20.60;9.90;;;;;;5053407;28;20025;-87
2022/08/25 01:52:55;;;;;;;6.47;4.30;;;20.60;15.10;;;;;;5053020;28;20497;-87
2022/08/25 01:55:21;;;;;;;6.07;5.03;;;20.50;14.50;;;;;;5053479;28;20043;-87
2022/08/25 01:57:46;;;;;;;9.95;4.35;;;20.40;11.20;;;;;;5053346;28;20029;-87
2022/08/25 02:00:13;;;;;;;5.15;4.63;;;20.50;9.30;;;;;;5053149;28;20029;-87
2022/08/25 02:02:39;;;;;;;4.97;4.47;;;20.40;15.30;;;;;;5053327;28;20131;-86
2022/08/25 02:05:05;;;;;;;5.05;4.57;;;20.40;15.40;;;;;;5053172;28;20497;-87
2022/08/25 02:07:31;;;;;;;6.78;4.63;;;20.40;12.10;;;;;;5052806;28;20032;-87
2022/08/25 02:09:58;;;;;;;5.03;4.63;;;20.50;13.40;;;;;;5053112;28;20024;-87
2022/08/25 02:12:24;;;;;;;5.15;4.65;;;20.50;15.80;;;;;;5052922;28;20123;-87
2022/08/25 02:14:49;;;;;;;4.82;4.32;;;20.50;8.20;;;;;;5052001;28;20021;-87
2022/08/25 02:17:16;;;;;;;5.82;4.85;;;20.50;7.80;;;;;;5053095;28;20573;-87
2022/08/25 02:19:41;;;;;;;5.10;4.53;;;20.50;1.70;;;;;;5052923;28;20390;-87
2022/08/25 02:22:07;;;;;;;6.07;4.90;;;20.50;5.40;;;;;;5052552;28;20083;-86
2022/08/25 02:24:33;;;;;;;6.00;4.70;;;20.40;7.90;;;;;;5052815;28;20052;-87
2022/08/25 02:27:00;;;;;;;6.40;4.50;;;20.40;13.80;;;;;;5052585;28;20108;-87
2022/08/25 02:29:25;;;;;;;5.22;4.70;;;20.50;12.00;;;;;;5052636;28;20028;-87
2022/08/25 02:31:51;;;;;;;5.35;4.55;;;20.40;10.10;;;;;;5052771;28;20029;-87
2022/08/25 02:34:17;;;;;;;8.85;4.85;;;20.50;8.80;;;;;;5052599;28;20484;-86
2022/08/25 02:36:43;;;;;;;5.05;4.50;;;20.50;9.90;;;;;;5052398;28;20099;-87
2022/08/25 02:39:10;;;;;;;6.22;4.32;;;20.30;9.40;;;;;;5052684;28;20117;-87
2022/08/25 02:41:37;;;;;;;7.70;4.55;;;20.30;9.40;;;;;;5052662;28;20078;-87
2022/08/25 02:44:04;;;;;;;5.22;4.72;;;20.20;11.00;;;;;;5052699;28;20044;-87
2022/08/25 02:46:29;;;;;;;5.50;4.97;;;20.30;11.70;;;;;;5034745;28;20028;-86
2022/08/25 02:48:56;;;;;;;5.55;4.75;;;20.30;7.50;;;;;;5052373;28;20033;-87
2022/08/25 02:51:23;;;;;;;5.38;4.72;;;20.40;13.70;;;;;;5052208;28;20028;-87
2022/08/25 02:53:49;;;;;;;7.13;4.70;;;20.30;11.50;;;;;;5052599;28;20048;-87
2022/08/25 02:56:17;;;;;;;5.03;4.60;;;20.30;7.20;;;;;;5052488;28;20148;-86
2022/08/25 02:58:44;;;;;;;5.38;4.78;;;20.30;13.20;;;;;;5052567;28;20044;-87
2022/08/25 03:01:10;;;;;;;5.47;4.60;;;20.30;14.40;;;;;;5052331;28;20135;-87
2022/08/25 03:03:39;;;;;;;6.25;5.03;;;20.20;11.50;;;;;;5052423;28;20033;-87
2022/08/25 03:06:08;;;;;;;5.10;4.70;;;20.20;12.10;;;;;;5052118;28;20021;-87
2022/08/25 03:08:35;;;;;;;5.30;4.80;;;20.10;14.40;;;;;;5052411;28;20029;-87
2022/08/25 03:11:01;;;;;;;5.47;4.55;;;20.20;17.60;;;;;;5052328;28;20017;-87
2022/08/25 03:13:27;;;;;;;5.40;4.90;;;20.10;17.50;;;;;;5052070;28;20047;-87
2022/08/25 03:15:53;;;;;;;5.40;4.90;;;20.20;10.20;;;;;;5052371;28;20537;-87
2022/08/25 03:18:18;;;;;;;5.15;4.68;;;20.20;13.60;;;;;;5052278;28;20068;-87
2022/08/25 03:20:44;;;;;;;6.30;4.68;;;20.30;8.90;;;;;;5051805;28;20025;-87
2022/08/25 03:23:10;;;;;;;5.00;4.55;;;20.50;11.60;;;;;;5052321;28;20116;-87
2022/08/25 03:28:23;;;;;;;5.63;5.10;;;20.60;12.60;;;;;;5056185;28;20478;-87
2022/08/25 03:30:49;;;;;;;6.00;4.68;;;20.60;13.90;;;;;;5055895;28;20021;-87
2022/08/25 03:33:15;;;;;;;6.78;4.75;;;20.60;17.40;;;;;;5056070;28;20477;-86
2022/08/25 03:35:41;;;;;;;5.68;4.78;;;20.60;16.10;;;;;;5055680;28;20025;-87
2022/08/25 03:38:07;;;;;;;5.70;5.10;;;20.60;10.80;;;;;;5055958;28;20549;-87
2022/08/25 03:40:32;;;;;;;6.53;4.93;;;20.60;10.10;;;;;;5055895;28;20040;-87
2022/08/25 03:42:58;;;;;;;5.38;4.70;;;20.60;12.00;;;;;;5055830;28;20078;-86
2022/08/25 03:45:24;;;;;;;5.93;5.03;;;20.60;12.00;;;;;;5056014;28;20089;-87
2022/08/25 03:47:51;;;;;;;6.72;5.15;;;20.70;11.50;;;;;;5056001;28;20082;-87
2022/08/25 03:50:18;;;;;;;5.25;4.85;;;20.60;14.40;;;;;;5055265;28;20107;-87
2022/08/25 03:52:49;;;;;;;5.72;5.20;;;20.50;15.10;;;;;;5055713;28;20596;-87
2022/08/25 03:55:14;;;;;;;5.75;5.18;;;20.50;13.70;;;;;;5055645;28;20489;-87
2022/08/25 03:57:40;;;;;;;6.13;4.93;;;20.50;8.90;;;;;;5055625;28;20040;-87
2022/08/25 04:00:08;;;;;;;5.95;4.93;;;20.60;22.40;;;;;;5055617;28;20028;-87
2022/08/25 04:02:34;;;;;;;5.38;4.65;;;20.60;18.50;;;;;;5055437;28;20104;-87
2022/08/25 04:05:00;;;;;;;5.32;4.80;;;20.60;16.30;;;;;;5055213;28;20075;-86
2022/08/25 04:07:26;;;;;;;6.57;5.10;;;20.60;19.30;;;;;;5055412;28;20021;-86
2022/08/25 04:09:55;;;;;;;5.70;5.00;;;20.50;15.30;;;;;;5055309;28;20025;-87
2022/08/25 04:12:21;;;;;;;5.78;5.20;;;20.60;16.30;;;;;;5055222;28;20513;-87
2022/08/25 04:14:47;;;;;;;5.53;5.03;;;20.50;19.40;;;;;;5055024;28;20033;-86
2022/08/25 04:17:13;;;;;;;7.95;5.03;;;20.60;15.10;;;;;;5054956;28;20032;-86
2022/08/25 04:19:38;;;;;;;5.65;5.05;;;20.60;17.60;;;;;;5055276;28;20101;-87
2022/08/25 04:22:04;;;;;;;7.38;5.10;;;20.60;15.60;;;;;;5055173;28;20071;-87
2022/08/25 04:24:29;;;;;;;5.68;5.05;;;20.60;16.80;;;;;;5055076;28;20021;-87
2022/08/25 04:26:55;;;;;;;6.00;5.40;;;20.60;16.10;;;;;;5054845;28;20029;-87
2022/08/25 04:29:23;;;;;;;7.85;5.00;;;20.50;18.00;;;;;;5054874;28;20505;-87
2022/08/25 04:31:49;;;;;;;7.22;5.20;;;20.50;20.00;;;;;;5054659;28;20432;-87
2022/08/25 04:34:17;;;;;;;6.35;5.68;;;20.50;25.00;;;;;;5054814;28;20563;-87
2022/08/25 04:36:43;;;;;;;6.35;5.25;;;20.40;18.60;;;;;;5054859;28;20100;-87
2022/08/25 04:39:08;;;;;;;6.55;4.97;;;20.30;16.50;;;;;;5053693;28;20533;-87
2022/08/25 04:41:34;;;;;;;6.10;5.28;;;20.30;16.30;;;;;;5054744;28;20051;-87
2022/08/25 04:44:01;;;;;;;7.05;4.78;;;20.50;25.50;;;;;;5054808;28;20363;-87
2022/08/25 04:46:30;;;;;;;5.70;5.03;;;20.50;22.00;;;;;;5054285;28;20044;-87
2022/08/25 04:48:57;;;;;;;8.13;5.47;;;20.60;20.10;;;;;;5054502;28;20060;-87
2022/08/25 04:51:26;;;;;;;6.43;5.00;;;20.60;27.20;;;;;;5054414;28;20047;-87
2022/08/25 04:53:53;;;;;;;6.95;4.95;;;20.60;20.20;;;;;;5054501;28;20037;-87
2022/08/25 04:56:23;;;;;;;7.55;5.35;;;20.60;18.90;;;;;;5054418;28;20025;-87
2022/08/25 04:58:50;;;;;;;11.77;5.35;;;20.30;16.20;;;;;;5054440;28;20025;-87
2022/08/25 05:01:19;;;;;;;6.80;4.95;;;20.30;16.50;;;;;;5054035;28;20029;-87
2022/08/25 05:03:46;;;;;;;6.93;4.97;;;20.30;18.80;;;;;;5054322;28;20378;-87
2022/08/25 05:06:13;;;;;;;6.68;5.25;;;20.40;18.30;;;;;;5054368;28;20029;-87
2022/08/25 05:08:39;;;;;;;6.13;5.53;;;20.30;16.20;;;;;;5054343;28;20025;-87
2022/08/25 05:11:07;;;;;;;6.32;5.10;;;20.20;19.40;;;;;;5053944;28;20025;-87
2022/08/25 05:13:34;;;;;;;5.80;5.13;;;20.20;15.80;;;;;;5053884;28;20040;-87
2022/08/25 05:16:00;;;;;;;6.38;5.03;;;20.30;16.10;;;;;;5053825;28;20033;-87
2022/08/25 05:18:28;;;;;;;5.85;5.10;;;20.30;15.80;;;;;;5054093;28;20075;-87
2022/08/25 05:20:55;;;;;;;6.63;5.22;;;20.50;18.80;;;;;;5053975;28;20071;-88
2022/08/25 05:23:22;;;;;;;8.15;4.70;;;20.50;20.40;;;;;;5054111;28;20025;-87
2022/08/25 05:25:49;;;;;;;5.65;5.03;;;20.50;18.00;;;;;;5053941;28;20043;-87
2022/08/25 05:28:15;;;;;;;8.25;5.43;;;20.60;19.30;;;;;;5053745;28;20468;-87
2022/08/25 05:30:42;;;;;;;6.55;5.10;;;20.60;21.00;;;;;;5053411;28;20462;-87
2022/08/25 05:33:10;;;;;;;6.45;5.43;;;20.80;20.60;;;;;;5053691;28;20045;-86
2022/08/25 05:35:36;;;;;;;6.38;5.10;;;20.70;16.40;;;;;;5053702;28;20021;-87
2022/08/25 05:38:02;;;;;;;10.48;4.90;;;20.90;16.90;;;;;;5053567;28;20044;-86
2022/08/25 05:40:29;;;;;;;7.93;5.18;;;21.00;20.80;;;;;;5053579;28;20150;-87
2022/08/25 05:42:54;;;;;;;5.47;4.82;;;21.00;14.90;;;;;;5053610;28;20120;-87
2022/08/25 05:45:20;;;;;;;6.00;4.88;;;21.00;15.50;;;;;;5053296;28;20484;-87
2022/08/25 05:47:46;;;;;;;5.15;4.70;;;21.10;11.90;;;;;;5053564;28;20029;-87
2022/08/25 05:50:11;;;;;;;5.47;4.97;;;21.10;14.20;;;;;;5053177;28;20032;-87
2022/08/25 05:52:37;;;;;;;7.43;5.05;;;21.10;15.40;;;;;;5053319;28;20036;-87
2022/08/25 05:55:05;;;;;;;7.60;5.00;;;21.20;18.60;;;;;;5053441;28;20033;-86
2022/08/25 05:57:32;;;;;;;6.80;5.10;;;21.20;15.70;;;;;;5053267;28;20397;-87
2022/08/25 05:59:57;;;;;;;6.00;5.07;;;21.30;16.60;;;;;;5052990;28;20017;-86
2022/08/25 06:02:43;;;;;;;8.48;5.25;;;21.30;12.60;;;;;;5053100;28;20056;-87
2022/08/25 06:05:22;;;;;;;7.18;5.40;;;21.40;16.90;;;;;;5053236;28;20104;-87
2022/08/25 06:07:50;;;;;;;7.28;4.97;;;21.50;13.00;;;;;;5053114;28;20025;-87
2022/08/25 06:10:18;;;;;;;7.85;5.47;;;21.50;14.20;;;;;;5053051;28;20021;-87
2022/08/25 06:12:44;;;;;;;7.00;5.07;;;21.50;15.60;;;;;;5053157;28;20099;-87
2022/08/25 06:15:13;;;;;;;5.70;5.20;;;21.50;14.30;;;;;;5052468;28;20052;-87
2022/08/25 06:17:41;;;;;;;8.70;5.30;;;21.50;16.10;;;;;;5053005;28;20534;-87
2022/08/25 06:20:20;;;;;;;8.40;5.43;;;21.60;10.60;;;;;;5053038;28;20191;-87
2022/08/25 06:22:46;;;;;;;6.15;5.25;;;21.60;20.00;;;;;;5052919;28;20029;-87
2022/08/25 06:25:13;;;;;;;7.10;5.72;;;21.60;13.80;;;;;;5052694;28;20478;-87
2022/08/25 06:27:39;;;;;;;8.32;5.88;;;21.70;19.30;;;;;;5052411;28;20049;-86
2022/08/25 06:30:08;;;;;;;7.35;5.47;;;21.80;13.70;;;;;;5052685;28;20017;-87
2022/08/25 06:32:35;;;;;;;6.38;4.88;;;21.90;16.80;;;;;;5052650;28;20087;-87
2022/08/25 06:35:03;;;;;;;9.25;5.30;;;21.90;17.10;;;;;;5052699;28;20401;-87
2022/08/25 06:37:28;;;;;;;8.20;5.82;;;22.10;17.10;;;;;;5052630;28;20043;-87
2022/08/25 06:39:54;;;;;;;6.85;5.40;;;22.10;10.90;;;;;;5052666;28;20033;-87
2022/08/25 06:42:20;;;;;;;7.60;5.15;;;22.20;11.70;;;;;;5052232;28;20024;-86
2022/08/25 06:44:45;;;;;;;10.55;5.68;;;22.30;16.40;;;;;;5052567;28;20078;-87
2022/08/25 06:47:11;;;;;;;8.65;5.38;;;22.50;13.80;;;;;;5052621;28;20029;-88
2022/08/25 06:49:37;;;;;;;7.53;5.47;;;22.60;17.10;;;;;;5052556;28;20045;-87
2022/08/25 06:52:03;;;;;;;5.50;5.00;;;22.70;13.60;;;;;;5052652;28;20021;-87
2022/08/25 06:54:29;;;;;;;6.75;5.30;;;22.80;14.80;;;;;;5052398;28;20037;-87
2022/08/25 06:56:54;;;;;;;8.05;4.90;;;22.90;18.80;;;;;;5052066;28;20017;-87
2022/08/25 06:59:20;;;;;;;6.47;5.03;;;23.00;16.30;;;;;;5052540;28;20482;-87
2022/08/25 07:01:46;;;;;;;9.40;5.00;;;23.10;12.90;;;;;;5056952;28;20024;-87
2022/08/25 07:04:12;;;;;;;10.02;5.65;;;23.20;15.30;;;;;;5058855;28;20114;-87
2022/08/25 07:06:37;;;;;;;7.95;5.45;;;23.30;13.10;;;;;;5059030;28;20013;-87
2022/08/25 07:09:05;;;;;;;9.57;5.22;;;23.40;14.60;;;;;;5058921;28;20147;-87
2022/08/25 07:11:33;;;;;;;6.45;4.97;;;23.50;18.20;;;;;;5058532;28;20488;-87
2022/08/25 07:14:03;;;;;;;12.25;5.25;;;23.60;17.40;;;;;;5058708;28;20126;-87
2022/08/25 07:16:30;;;;;;;6.18;5.05;;;23.70;13.90;;;;;;5058759;28;20531;-87
2022/08/25 07:18:56;;;;;;;8.05;5.40;;;23.80;22.90;;;;;;5058820;28;20025;-87
2022/08/25 07:21:27;;;;;;;10.38;5.78;;;23.80;13.30;;;;;;5059003;28;20139;-87
2022/08/25 07:23:53;;;;;;;8.15;5.22;;;23.90;20.10;;;;;;5058790;28;20026;-87
2022/08/25 07:26:22;;;;;;;8.60;5.88;;;24.00;18.70;;;;;;5058423;28;20058;-87
2022/08/25 07:28:48;;;;;;;8.55;5.07;;;24.20;16.20;;;;;;5058538;28;20053;-87
2022/08/25 07:31:14;;;;;;;7.13;5.28;;;24.30;24.60;;;;;;5058730;28;20390;-87
2022/08/25 07:35:13;;;;;;;8.93;5.68;;;24.40;19.10;;;;;;5058645;28;20041;-87
2022/08/25 07:36:26;;;;;;;8.23;5.43;;;24.50;18.50;;;;;;5058657;28;20504;-87
2022/08/25 07:38:52;;;;;;;8.82;5.68;;;24.60;10.50;;;;;;5058581;28;20112;-87
2022/08/25 07:41:18;;;;;;;5.82;5.00;;;24.70;12.30;;;;;;5058635;28;20064;-87
2022/08/25 07:43:43;;;;;;;5.43;4.85;;;24.80;13.10;;;;;;5058679;28;20061;-87
2022/08/25 07:46:09;;;;;;;8.40;4.70;;;24.90;16.40;;;;;;5058678;28;20021;-87
2022/08/25 07:48:35;;;;;;;9.10;4.95;;;25.00;16.30;;;;;;5058727;28;20025;-87
2022/08/25 07:51:07;;;;;;;5.53;5.03;;;25.10;12.90;;;;;;5058464;28;20021;-87
2022/08/25 07:53:32;;;;;;;8.02;4.70;;;25.20;16.50;;;;;;5058561;28;20062;-86
2022/08/25 07:55:58;;;;;;;5.70;5.00;;;25.30;14.00;;;;;;5058346;28;20033;-87
2022/08/25 07:58:24;;;;;;;6.18;4.72;;;25.50;21.80;;;;;;5058579;28;20040;-87
2022/08/25 08:00:52;;;;;;;5.63;4.70;;;25.50;18.70;;;;;;5058453;28;20504;-87
2022/08/25 08:03:19;;;;;;;6.20;4.70;;;25.60;14.10;;;;;;5058500;28;20031;-86
2022/08/25 08:05:46;;;;;;;5.63;4.45;;;25.80;29.90;;;;;;5058566;28;20017;-87
2022/08/25 08:08:12;;;;;;;7.45;4.20;;;25.90;19.30;;;;;;5058507;28;20096;-87
2022/08/25 08:10:40;;;;;;;5.07;4.07;;;26.10;25.50;;;;;;5058105;28;20028;-87
2022/08/25 08:13:08;;;;;;;9.23;4.30;;;26.20;12.80;;;;;;5056263;28;20040;-87
2022/08/25 08:15:35;;;;;;;5.80;4.07;;;26.30;22.50;;;;;;5054910;28;20025;-87
2022/08/25 08:18:01;;;;;;;5.28;4.20;;;26.30;22.10;;;;;;5055331;28;20112;-87
2022/08/25 08:20:27;;;;;;;5.45;3.70;;;26.40;23.80;;;;;;5055118;28;20036;-87
2022/08/25 08:22:53;;;;;;;5.38;3.83;;;26.60;21.10;;;;;;5055135;28;20021;-87
2022/08/25 08:25:19;;;;;;;5.50;4.18;;;26.60;18.10;;;;;;5054739;28;20516;-87
2022/08/25 08:27:45;;;;;;;7.13;4.65;;;26.70;14.50;;;;;;5054723;28;20041;-87
2022/08/25 08:30:12;;;;;;;5.32;3.90;;;26.80;23.70;;;;;;5054811;28;20482;-87
2022/08/25 08:32:38;;;;;;;5.30;3.33;;;26.90;22.70;;;;;;5054969;28;20112;-87
2022/08/25 08:35:04;;;;;;;3.55;3.20;;;27.00;17.40;;;;;;5054878;28;20041;-87
2022/08/25 08:37:30;;;;;;;4.30;3.42;;;27.10;21.00;;;;;;5054744;28;20064;-87
2022/08/25 08:39:56;;;;;;;3.13;2.78;;;27.40;20.40;;;;;;5054431;28;20474;-87
2022/08/25 08:42:38;;;;;;;2.92;2.60;;;27.50;22.40;;;;;;5054862;28;20107;-87
2022/08/25 08:45:23;;;;;;;3.80;3.00;;;27.60;18.30;;;;;;5054736;28;20554;-88
2022/08/25 08:48:20;;;;;;;2.80;2.50;;;27.80;13.90;;;;;;5054697;28;20037;-87
2022/08/25 08:50:57;;;;;;;3.97;2.40;;;27.90;18.50;;;;;;5054585;28;20036;-87
2022/08/25 08:53:40;;;;;;;3.63;2.70;;;28.00;27.10;;;;;;5054228;28;20037;-87
2022/08/25 08:56:11;;;;;;;3.25;2.65;;;28.00;19.40;;;;;;5036680;28;20049;-87
2022/08/25 08:58:48;;;;;;;4.22;2.78;;;28.10;21.90;;;;;;5054544;28;20056;-87
2022/08/25 09:01:22;;;;;;;3.83;2.42;;;28.20;17.40;;;;;;5054431;28;20017;-88
2022/08/25 09:03:58;;;;;;;5.75;2.70;;;28.30;17.00;;;;;;5054359;28;20029;-87
2022/08/25 09:06:30;;;;;;;3.28;2.50;;;28.50;16.00;;;;;;5054212;28;20493;-87
2022/08/25 09:09:00;;;;;;;2.80;2.60;;;28.60;15.30;;;;;;5053978;28;20538;-87
2022/08/25 09:12:00;;;;;;;2.30;2.10;;;28.60;14.60;;;;;;5054214;28;20103;-87
2022/08/25 09:14:44;;;;;;;5.28;2.35;;;28.80;20.50;;;;;;5053923;28;20039;-87
2022/08/25 09:17:22;;;;;;;3.83;2.65;;;28.80;17.20;;;;;;5054162;28;20389;-88
2022/08/25 09:20:10;;;;;;;3.40;2.38;;;28.90;14.10;;;;;;5054035;28;20474;-87
2022/08/25 09:23:05;;;;;;;2.40;2.20;;;28.90;28.60;;;;;;5053795;28;20494;-88
2022/08/25 09:25:55;;;;;;;4.38;2.58;;;29.00;29.10;;;;;;4953227;29;20039;-87
2022/08/25 09:28:39;;;;;;;3.33;2.45;;;29.10;31.60;;;;;;4941160;29;20051;-87
2022/08/25 09:31:30;;;;;;;2.88;2.20;;;29.20;29.60;;;;;;4915621;29;20040;-88
2022/08/25 09:33:59;;;;;;;4.40;2.30;;;29.40;29.30;;;;;;4915602;29;20072;-87
2022/08/25 09:36:25;;;;;;;3.25;2.40;;;29.30;29.20;;;;;;4915003;29;20031;-87
2022/08/25 09:38:51;;;;;;;2.70;2.50;;;29.40;25.10;;;;;;4915547;29;20047;-88
2022/08/25 09:41:42;;;;;;;2.70;2.50;;;29.70;26.70;;;;;;4915322;29;20032;-88
2022/08/25 09:44:17;;;;;;;3.53;2.60;;;29.50;30.80;;;;;;4915465;29;20413;-87
2022/08/25 09:46:55;;;;;;;6.50;2.80;;;29.50;27.70;;;;;;4915352;29;20147;-87
2022/08/25 09:49:34;;;;;;;3.67;2.60;;;29.40;29.00;;;;;;4915232;29;20032;-87
2022/08/25 09:52:24;;;;;;;3.58;2.40;;;29.30;31.10;;;;;;4914927;29;20032;-88
2022/08/25 09:54:51;;;;;;;2.67;2.47;;;29.60;30.50;;;;;;4915115;29;20148;-87
2022/08/25 09:57:48;;;;;;;3.22;2.40;;;29.60;28.10;;;;;;4915218;29;20042;-88
2022/08/25 10:00:20;;;;;;;2.92;2.72;;;29.70;14.70;;;;;;4899873;29;20036;-88
2022/08/25 10:03:19;;;;;;;4.57;2.53;;;29.70;52.60;;;;;;4972932;28;20044;-88
2022/08/25 10:05:59;;;;;;;6.53;2.42;;;30.10;36.50;;;;;;5013180;28;20026;-87
2022/08/25 10:08:44;;;;;;;2.85;2.35;;;29.90;28.60;;;;;;5013536;28;20402;-88
2022/08/25 10:11:14;;;;;;;5.75;2.72;;;30.20;26.90;;;;;;5013460;28;20026;-87
2022/08/25 10:13:45;;;;;;;4.80;2.50;;;30.60;27.70;;;;;;5016652;28;20041;-87
2022/08/25 10:16:33;;;;;;;2.92;2.20;;;31.80;25.20;;;;;;5032896;28;20056;-87
2022/08/25 10:19:09;;;;;;;2.75;2.47;;;35.70;26.90;;;;;;5033044;28;20029;-87
2022/08/25 10:21:37;;;;;;;3.95;2.30;;;38.50;25.30;;;;;;5032635;28;20029;-88
2022/08/25 10:24:04;;;;;;;2.53;2.30;;;39.30;23.40;;;;;;5033059;28;20032;-88
2022/08/25 10:27:04;;;;;;;2.33;2.08;;;39.70;22.30;;;;;;5032786;28;20033;-88
2022/08/25 10:30:05;;;;;;;3.22;2.05;;;41.90;14.00;;;;;;5049028;28;20041;-88
2022/08/25 10:32:39;;;;;;;3.17;2.10;;;43.60;12.60;;;;;;5052717;28;20024;-88
2022/08/25 10:35:14;;;;;;;3.15;2.20;;;42.30;5.00;;;;;;5052070;28;20029;-88
2022/08/25 10:37:45;;;;;;;3.70;2.20;;;43.30;4.00;;;;;;5052400;28;20025;-88
2022/08/25 10:40:15;;;;;;;1.85;1.75;;;44.90;6.30;;;;;;5052561;28;20025;-88
2022/08/25 10:43:06;;;;;;;1.92;1.80;;;42.00;1.00;;;;;;5052601;28;20032;-88
2022/08/25 10:45:48;;;;;;;2.20;1.90;;;40.90;11.30;;;;;;5052527;28;20029;-88
2022/08/25 10:48:19;;;;;;;4.13;2.13;;;41.60;10.50;;;;;;5052500;28;20025;-89
2022/08/25 10:51:00;;;;;;;2.33;2.10;;;43.50;10.80;;;;;;5052073;28;20057;-88
2022/08/25 10:53:45;;;;;;;1.77;1.67;;;45.60;17.50;;;;;;5052505;28;20374;-89
2022/08/25 10:56:20;;;;;;;3.35;1.70;;;46.00;7.90;;;;;;5052406;28;20029;-88
2022/08/25 10:58:58;;;;;;;2.65;1.80;;;45.10;3.90;;;;;;5052440;28;20117;-89
2022/08/25 11:01:31;;;;;;;2.50;1.90;;;45.80;14.00;;;;;;5052555;28;20486;-89
2022/08/25 11:04:07;;;;;;;1.70;1.60;;;44.70;15.60;;;;;;5052088;28;20140;-89
2022/08/25 11:06:49;;;;;;;2.40;1.90;;;45.50;10.80;;;;;;5052367;28;20458;-89
2022/08/25 11:09:22;;;;;;;3.88;1.85;;;44.20;8.90;;;;;;5052683;28;20075;-89
2022/08/25 11:11:54;;;;;;;2.38;2.00;;;43.60;5.20;;;;;;5052399;28;20037;-89
2022/08/25 11:14:38;;;;;;;3.45;1.80;;;46.40;6.10;;;;;;5052063;28;20498;-89
2022/08/25 11:17:19;;;;;;;1.90;1.80;;;47.50;6.40;;;;;;5052269;28;20036;-89
2022/08/25 11:19:49;;;;;;;2.20;2.10;;;47.10;9.20;;;;;;5051918;28;20037;-88
2022/08/25 11:22:41;;;;;;;2.38;1.98;;;48.80;2.00;;;;;;5052240;28;20018;-89
2022/08/25 11:25:25;;;;;;;3.03;2.00;;;46.80;1.10;;;;;;5052277;28;20570;-89
2022/08/25 11:28:20;;;;;;;3.20;2.10;;;45.50;1.00;;;;;;5051989;28;20052;-89
2022/08/25 11:30:47;;;;;;;2.10;1.88;;;46.10;1.90;;;;;;5051826;28;20501;-89
2022/08/25 11:33:15;;;;;;;3.33;2.20;;;48.70;1.00;;;;;;5051745;28;20040;-89
2022/08/25 11:35:59;;;;;;;3.00;2.25;;;48.00;1.00;;;;;;5052074;28;20036;-89
2022/08/25 11:38:43;;;;;;;3.95;1.92;;;48.60;5.10;;;;;;5052056;28;20033;-89
2022/08/25 11:41:24;;;;;;;2.65;1.80;;;49.60;1.00;;;;;;5052013;28;20382;-89
2022/08/25 11:44:07;;;;;;;4.53;2.42;;;49.70;1.00;;;;;;5051982;28;20028;-89
2022/08/25 11:46:41;;;;;;;2.45;2.25;;;49.40;1.00;;;;;;5052212;28;20021;-89
2022/08/25 11:49:36;;;;;;;3.00;2.20;;;49.40;1.00;;;;;;5055750;28;20107;-89
2022/08/25 11:52:03;;;;;;;3.40;2.13;;;49.30;1.00;;;;;;5055638;28;20029;-89
2022/08/25 11:54:42;;;;;;;2.38;2.17;;;50.30;1.00;;;;;;5055660;28;20041;-89
2022/08/25 11:57:20;;;;;;;2.20;2.00;;;50.90;1.00;;;;;;5037735;28;20021;-89
2022/08/25 11:59:50;;;;;;;2.60;2.40;;;49.70;1.00;;;;;;5055538;28;20553;-89
2022/08/25 12:02:38;;;;;;;3.28;1.88;;;50.90;1.00;;;;;;5055123;28;20486;-89
2022/08/25 12:05:23;;;;;;;4.55;2.22;;;51.50;1.00;;;;;;5055211;28;20043;-89
2022/08/25 12:10:59;;;;;;;3.03;2.10;;;52.00;1.00;;;;;;5055403;28;20039;-89
2022/08/25 12:13:50;;;;;;;2.15;2.05;;;52.40;1.00;;;;;;5053327;28;20041;-90
2022/08/25 12:16:36;;;;;;;2.45;2.05;;;49.50;1.00;;;;;;5049350;28;20359;-89
2022/08/25 12:19:29;;;;;;;2.63;2.22;;;49.20;1.00;;;;;;5054723;28;20037;-90
2022/08/25 12:22:01;;;;;;;2.50;2.30;;;49.90;1.00;;;;;;5055297;28;20040;-90
2022/08/25 12:24:42;;;;;;;2.97;2.40;;;49.30;1.00;;;;;;5055162;28;20021;-90
2022/08/25 12:27:39;;;;;;;2.30;2.10;;;49.00;1.00;;;;;;5054862;28;20162;-90
2022/08/25 12:30:32;;;;;;;2.33;2.08;;;48.90;2.20;;;;;;5054977;28;20029;-90
2022/08/25 12:33:15;;;;;;;2.30;2.15;;;48.50;1.00;;;;;;5054920;28;20033;-89
2022/08/25 12:35:57;;;;;;;2.75;2.40;;;50.20;1.60;;;;;;5055015;28;20090;-89
2022/08/25 12:38:31;;;;;;;2.55;2.35;;;50.00;1.00;;;;;;5054930;28;20025;-90
2022/08/25 12:41:13;;;;;;;3.00;1.98;;;49.80;1.00;;;;;;5054652;28;20439;-90
2022/08/25 12:43:42;;;;;;;2.65;2.30;;;50.80;1.00;;;;;;5054803;28;20109;-90
2022/08/25 12:46:26;;;;;;;2.75;2.35;;;51.00;1.00;;;;;;5054356;28;20022;-90
2022/08/25 12:49:02;;;;;;;2.95;2.28;;;52.20;1.00;;;;;;5054784;28;20041;-90
2022/08/25 12:51:49;;;;;;;4.20;2.20;;;52.20;1.00;;;;;;5054634;28;20428;-90
2022/08/25 12:54:51;;;;;;;3.10;2.15;;;52.00;1.00;;;;;;5054543;28;20128;-89
2022/08/25 12:57:30;;;;;;;2.35;2.15;;;51.10;1.00;;;;;;5054534;28;20029;-89
2022/08/25 13:00:15;;;;;;;4.10;2.25;;;50.70;1.00;;;;;;5053291;28;20039;-90
2022/08/25 13:02:56;;;;;;;2.50;2.10;;;49.40;1.00;;;;;;5054438;28;20029;-89
2022/08/25 13:05:45;;;;;;;2.50;2.30;;;51.20;1.00;;;;;;5054333;28;20397;-89
2022/08/25 13:08:46;;;;;;;2.53;2.10;;;50.30;1.00;;;;;;5054208;28;20371;-90
2022/08/25 13:11:27;;;;;;;2.22;2.03;;;49.70;1.00;;;;;;5054338;28;20021;-90
2022/08/25 13:14:00;;;;;;;2.50;2.30;;;50.00;1.00;;;;;;5051303;28;20038;-90
2022/08/25 13:16:28;;;;;;;3.28;2.45;;;50.40;1.00;;;;;;5054208;28;20035;-90
2022/08/25 13:19:00;;;;;;;4.40;2.30;;;51.40;1.00;;;;;;5054093;28;20027;-90